sensor_id;sensor_type;location;lat;lon;timestamp;pressure;altitude;pressure_sealevel;temperature;humidity
48527;BME280;34317;51.660;5.824;2023-04-15T00:01:01;100741.03;;;11.50;44.09
48527;BME280;34317;51.660;5.824;2023-04-15T00:03:28;100739.50;;;11.46;44.09
48527;BME280;34317;51.660;5.824;2023-04-15T00:05:57;100733.41;;;11.44;44.30
48527;BME280;34317;51.660;5.824;2023-04-15T00:08:24;100732.78;;;11.39;44.17
48527;BME280;34317;51.660;5.824;2023-04-15T00:10:51;100729.53;;;11.34;44.29
48527;BME280;34317;51.660;5.824;2023-04-15T00:13:19;100724.34;;;11.31;44.42
48527;BME280;34317;51.660;5.824;2023-04-15T00:15:46;100736.84;;;11.29;44.56
48527;BME280;34317;51.660;5.824;2023-04-15T00:18:13;100733.41;;;11.27;44.42
48527;BME280;34317;51.660;5.824;2023-04-15T00:20:40;100733.41;;;11.27;44.49
48527;BME280;34317;51.660;5.824;2023-04-15T00:23:08;100732.56;;;11.26;44.35
48527;BME280;34317;51.660;5.824;2023-04-15T00:25:35;100740.41;;;11.28;44.78
48527;BME280;34317;51.660;5.824;2023-04-15T00:28:02;100729.81;;;11.28;44.77
48527;BME280;34317;51.660;5.824;2023-04-15T00:30:29;100734.25;;;11.27;44.67
48527;BME280;34317;51.660;5.824;2023-04-15T00:32:57;100728.94;;;11.27;44.94
48527;BME280;34317;51.660;5.824;2023-04-15T00:35:24;100732.63;;;11.25;44.78
48527;BME280;34317;51.660;5.824;2023-04-15T00:37:52;100723.13;;;11.21;44.76
48527;BME280;34317;51.660;5.824;2023-04-15T00:40:20;100729.41;;;11.18;44.93
48527;BME280;34317;51.660;5.824;2023-04-15T00:42:49;100728.56;;;11.18;45.12
48527;BME280;34317;51.660;5.824;2023-04-15T00:45:16;100726.81;;;11.17;44.92
48527;BME280;34317;51.660;5.824;2023-04-15T00:47:43;100728.69;;;11.15;45.19
48527;BME280;34317;51.660;5.824;2023-04-15T00:50:11;100725.25;;;11.13;45.26
48527;BME280;34317;51.660;5.824;2023-04-15T00:52:39;100736.81;;;11.12;45.17
48527;BME280;34317;51.660;5.824;2023-04-15T00:55:07;100732.44;;;11.10;45.14
48527;BME280;34317;51.660;5.824;2023-04-15T00:57:35;100735.16;;;11.09;44.85
48527;BME280;34317;51.660;5.824;2023-04-15T01:00:03;100737.88;;;11.07;45.24
48527;BME280;34317;51.660;5.824;2023-04-15T01:02:39;100726.50;;;11.05;44.99
48527;BME280;34317;51.660;5.824;2023-04-15T01:05:07;100741.47;;;11.06;45.16
48527;BME280;34317;51.660;5.824;2023-04-15T01:07:34;100734.44;;;11.05;45.18
48527;BME280;34317;51.660;5.824;2023-04-15T01:10:02;100741.63;;;11.03;45.20
48527;BME280;34317;51.660;5.824;2023-04-15T01:12:31;100739.13;;;11.00;45.22
48527;BME280;34317;51.660;5.824;2023-04-15T01:14:59;100742.69;;;10.99;44.92
48527;BME280;34317;51.660;5.824;2023-04-15T01:17:26;100743.66;;;10.98;45.14
48527;BME280;34317;51.660;5.824;2023-04-15T01:19:55;100742.06;;;10.94;44.79
48527;BME280;34317;51.660;5.824;2023-04-15T01:22:24;100736.94;;;10.91;45.11
48527;BME280;34317;51.660;5.824;2023-04-15T01:27:38;100744.38;;;10.83;45.09
48527;BME280;34317;51.660;5.824;2023-04-15T01:30:07;100738.34;;;10.79;45.26
48527;BME280;34317;51.660;5.824;2023-04-15T01:32:35;100742.97;;;10.76;45.19
48527;BME280;34317;51.660;5.824;2023-04-15T01:35:02;100741.38;;;10.71;45.28
48527;BME280;34317;51.660;5.824;2023-04-15T01:37:30;100743.41;;;10.66;45.20
48527;BME280;34317;51.660;5.824;2023-04-15T01:39:58;100738.22;;;10.63;45.35
48527;BME280;34317;51.660;5.824;2023-04-15T01:42:25;100738.34;;;10.60;45.70
48527;BME280;34317;51.660;5.824;2023-04-15T01:44:53;100741.19;;;10.57;45.62
48527;BME280;34317;51.660;5.824;2023-04-15T01:47:20;100736.97;;;10.53;45.89
48527;BME280;34317;51.660;5.824;2023-04-15T01:49:48;100738.09;;;10.47;46.09
48527;BME280;34317;51.660;5.824;2023-04-15T01:52:15;100737.50;;;10.41;46.30
48527;BME280;34317;51.660;5.824;2023-04-15T01:54:42;100737.81;;;10.35;46.59
48527;BME280;34317;51.660;5.824;2023-04-15T01:57:11;100738.13;;;10.27;47.08
48527;BME280;34317;51.660;5.824;2023-04-15T01:59:38;100740.03;;;10.23;47.29
48527;BME280;34317;51.660;5.824;2023-04-15T02:02:05;100734.03;;;10.20;47.44
48527;BME280;34317;51.660;5.824;2023-04-15T02:04:32;100740.31;;;10.17;47.65
48527;BME280;34317;51.660;5.824;2023-04-15T02:07:00;100738.59;;;10.16;47.83
48527;BME280;34317;51.660;5.824;2023-04-15T02:09:27;100736.00;;;10.14;47.75
48527;BME280;34317;51.660;5.824;2023-04-15T02:11:55;100740.47;;;10.14;48.03
48527;BME280;34317;51.660;5.824;2023-04-15T02:14:23;100738.72;;;10.13;48.14
48527;BME280;34317;51.660;5.824;2023-04-15T02:16:53;100742.31;;;10.12;48.04
48527;BME280;34317;51.660;5.824;2023-04-15T02:19:20;100737.03;;;10.12;47.86
48527;BME280;34317;51.660;5.824;2023-04-15T02:21:47;100741.38;;;10.13;47.77
48527;BME280;34317;51.660;5.824;2023-04-15T02:24:16;100742.31;;;10.12;47.81
48527;BME280;34317;51.660;5.824;2023-04-15T02:26:44;100751.03;;;10.14;47.73
48527;BME280;34317;51.660;5.824;2023-04-15T02:29:12;100749.25;;;10.14;47.79
48527;BME280;34317;51.660;5.824;2023-04-15T02:31:39;100749.19;;;10.16;47.99
48527;BME280;34317;51.660;5.824;2023-04-15T02:34:08;100752.63;;;10.18;47.76
48527;BME280;34317;51.660;5.824;2023-04-15T02:36:35;100747.31;;;10.18;47.98
48527;BME280;34317;51.660;5.824;2023-04-15T02:39:04;100751.69;;;10.19;47.99
48527;BME280;34317;51.660;5.824;2023-04-15T02:41:31;100747.31;;;10.18;48.36
48527;BME280;34317;51.660;5.824;2023-04-15T02:43:58;100759.75;;;10.16;48.45
48527;BME280;34317;51.660;5.824;2023-04-15T02:46:27;100763.31;;;10.15;48.08
48527;BME280;34317;51.660;5.824;2023-04-15T02:48:54;100760.06;;;10.10;48.42
48527;BME280;34317;51.660;5.824;2023-04-15T02:51:23;100764.63;;;10.06;48.72
48527;BME280;34317;51.660;5.824;2023-04-15T02:53:50;100763.88;;;10.03;48.91
48527;BME280;34317;51.660;5.824;2023-04-15T02:56:17;100765.75;;;10.01;48.79
48527;BME280;34317;51.660;5.824;2023-04-15T02:58:46;100773.75;;;9.99;48.99
48527;BME280;34317;51.660;5.824;2023-04-15T03:01:16;100769.31;;;10.00;49.35
48527;BME280;34317;51.660;5.824;2023-04-15T03:03:43;100772.91;;;9.99;49.28
48527;BME280;34317;51.660;5.824;2023-04-15T03:06:11;100771.16;;;9.98;49.32
48527;BME280;34317;51.660;5.824;2023-04-15T03:08:38;100778.31;;;9.96;49.59
48527;BME280;34317;51.660;5.824;2023-04-15T03:11:05;100776.59;;;9.94;49.86
48527;BME280;34317;51.660;5.824;2023-04-15T03:13:35;100777.63;;;9.90;50.00
48527;BME280;34317;51.660;5.824;2023-04-15T03:16:09;100779.50;;;9.88;49.91
48527;BME280;34317;51.660;5.824;2023-04-15T03:18:37;100777.00;;;9.85;50.08
48527;BME280;34317;51.660;5.824;2023-04-15T03:21:04;100778.84;;;9.83;50.04
48527;BME280;34317;51.660;5.824;2023-04-15T03:23:34;100782.41;;;9.82;50.19
48527;BME280;34317;51.660;5.824;2023-04-15T03:26:02;100784.25;;;9.80;50.45
48527;BME280;34317;51.660;5.824;2023-04-15T03:28:31;100784.38;;;9.77;50.47
48527;BME280;34317;51.660;5.824;2023-04-15T03:30:59;100791.53;;;9.75;50.34
48527;BME280;34317;51.660;5.824;2023-04-15T03:33:27;100796.03;;;9.73;50.61
48527;BME280;34317;51.660;5.824;2023-04-15T03:35:54;100791.78;;;9.69;50.54
48527;BME280;34317;51.660;5.824;2023-04-15T03:38:21;100793.66;;;9.67;50.76
48527;BME280;34317;51.660;5.824;2023-04-15T03:40:48;100792.91;;;9.63;50.68
48527;BME280;34317;51.660;5.824;2023-04-15T03:43:15;100792.06;;;9.63;50.64
48527;BME280;34317;51.660;5.824;2023-04-15T03:45:42;100800.91;;;9.62;51.04
48527;BME280;34317;51.660;5.824;2023-04-15T03:48:09;100802.75;;;9.60;51.38
48527;BME280;34317;51.660;5.824;2023-04-15T03:50:44;100808.03;;;9.60;51.16
48527;BME280;34317;51.660;5.824;2023-04-15T03:53:11;100802.88;;;9.57;51.31
48527;BME280;34317;51.660;5.824;2023-04-15T03:55:38;100802.88;;;9.57;51.28
48527;BME280;34317;51.660;5.824;2023-04-15T03:58:06;100814.38;;;9.55;50.99
48527;BME280;34317;51.660;5.824;2023-04-15T04:00:33;100810.94;;;9.53;51.21
48527;BME280;34317;51.660;5.824;2023-04-15T04:03:00;100811.00;;;9.52;51.07
48527;BME280;34317;51.660;5.824;2023-04-15T04:05:27;100817.28;;;9.49;51.36
48527;BME280;34317;51.660;5.824;2023-04-15T04:07:55;100821.75;;;9.47;51.08
48527;BME280;34317;51.660;5.824;2023-04-15T04:10:22;100829.03;;;9.42;51.08
48527;BME280;34317;51.660;5.824;2023-04-15T04:12:49;100828.34;;;9.37;51.29
48527;BME280;34317;51.660;5.824;2023-04-15T04:15:16;100839.03;;;9.34;51.06
48527;BME280;34317;51.660;5.824;2023-04-15T04:17:43;100835.75;;;9.29;51.22
48527;BME280;34317;51.660;5.824;2023-04-15T04:20:10;100846.41;;;9.26;51.19
48527;BME280;34317;51.660;5.824;2023-04-15T04:22:38;100835.97;;;9.23;51.11
48527;BME280;34317;51.660;5.824;2023-04-15T04:25:07;100844.81;;;9.22;50.98
48527;BME280;34317;51.660;5.824;2023-04-15T04:27:35;100846.66;;;9.20;50.80
48527;BME280;34317;51.660;5.824;2023-04-15T04:30:02;100846.78;;;9.16;50.37
48527;BME280;34317;51.660;5.824;2023-04-15T04:32:29;100857.44;;;9.13;50.25
48527;BME280;34317;51.660;5.824;2023-04-15T04:34:57;100854.00;;;9.11;50.35
48527;BME280;34317;51.660;5.824;2023-04-15T04:37:24;100862.88;;;9.10;50.44
48527;BME280;34317;51.660;5.824;2023-04-15T04:39:51;100868.16;;;9.10;50.49
48527;BME280;34317;51.660;5.824;2023-04-15T04:42:18;100862.88;;;9.10;50.28
48527;BME280;34317;51.660;5.824;2023-04-15T04:44:45;100875.16;;;9.11;50.47
48527;BME280;34317;51.660;5.824;2023-04-15T04:47:13;100883.06;;;9.11;50.40
48527;BME280;34317;51.660;5.824;2023-04-15T04:49:41;100884.00;;;9.10;50.43
48527;BME280;34317;51.660;5.824;2023-04-15T04:52:08;100877.00;;;9.09;50.17
48527;BME280;34317;51.660;5.824;2023-04-15T04:54:36;100884.81;;;9.12;50.34
48527;BME280;34317;51.660;5.824;2023-04-15T04:57:03;100890.03;;;9.14;50.09
48527;BME280;34317;51.660;5.824;2023-04-15T04:59:30;100891.69;;;9.16;50.22
48527;BME280;34317;51.660;5.824;2023-04-15T05:01:57;100896.06;;;9.18;49.83
48527;BME280;34317;51.660;5.824;2023-04-15T05:04:24;100905.84;;;9.15;50.19
48527;BME280;34317;51.660;5.824;2023-04-15T05:06:52;100899.63;;;9.16;49.92
48527;BME280;34317;51.660;5.824;2023-04-15T05:09:19;100904.00;;;9.18;50.46
48527;BME280;34317;51.660;5.824;2023-04-15T05:11:46;100908.41;;;9.17;49.99
48527;BME280;34317;51.660;5.824;2023-04-15T05:14:13;100911.84;;;9.19;49.98
48527;BME280;34317;51.660;5.824;2023-04-15T05:16:40;100918.91;;;9.19;50.24
48527;BME280;34317;51.660;5.824;2023-04-15T05:19:08;100914.44;;;9.21;50.16
48527;BME280;34317;51.660;5.824;2023-04-15T05:21:35;100927.66;;;9.21;49.97
48527;BME280;34317;51.660;5.824;2023-04-15T05:24:05;100925.81;;;9.23;49.86
48527;BME280;34317;51.660;5.824;2023-04-15T05:26:32;100925.81;;;9.23;50.41
48527;BME280;34317;51.660;5.824;2023-04-15T05:28:59;100929.25;;;9.25;50.24
48527;BME280;34317;51.660;5.824;2023-04-15T05:31:27;100927.44;;;9.27;50.09
48527;BME280;34317;51.660;5.824;2023-04-15T05:33:54;100936.16;;;9.29;49.98
48527;BME280;34317;51.660;5.824;2023-04-15T05:36:22;100941.31;;;9.32;50.40
48527;BME280;34317;51.660;5.824;2023-04-15T05:38:49;100940.34;;;9.34;50.52
48527;BME280;34317;51.660;5.824;2023-04-15T05:41:16;100949.94;;;9.37;50.17
48527;BME280;34317;51.660;5.824;2023-04-15T05:43:45;100947.19;;;9.40;50.28
48527;BME280;34317;51.660;5.824;2023-04-15T05:46:13;100954.88;;;9.46;50.59
48527;BME280;34317;51.660;5.824;2023-04-15T05:48:40;100953.78;;;9.52;50.64
48527;BME280;34317;51.660;5.824;2023-04-15T05:51:07;100956.22;;;9.57;50.43
48527;BME280;34317;51.660;5.824;2023-04-15T05:53:35;100964.84;;;9.62;50.47
48527;BME280;34317;51.660;5.824;2023-04-15T05:56:03;100960.25;;;9.67;50.57
48527;BME280;34317;51.660;5.824;2023-04-15T05:58:30;100966.09;;;9.75;50.61
48527;BME280;34317;51.660;5.824;2023-04-15T06:00:57;100972.97;;;9.79;50.54
48527;BME280;34317;51.660;5.824;2023-04-15T06:03:24;100968.31;;;9.86;50.59
48527;BME280;34317;51.660;5.824;2023-04-15T06:05:52;100983.94;;;9.92;50.95
48527;BME280;34317;51.660;5.824;2023-04-15T06:08:20;100978.38;;;9.98;50.84
48527;BME280;34317;51.660;5.824;2023-04-15T06:10:47;100986.03;;;10.06;51.03
48527;BME280;34317;51.660;5.824;2023-04-15T06:13:14;100998.06;;;10.13;51.08
48527;BME280;34317;51.660;5.824;2023-04-15T06:15:42;100996.00;;;10.21;50.80
48527;BME280;34317;51.660;5.824;2023-04-15T06:18:09;101006.31;;;10.27;50.92
48527;BME280;34317;51.660;5.824;2023-04-15T06:20:37;101006.09;;;10.33;50.79
48527;BME280;34317;51.660;5.824;2023-04-15T06:23:04;101009.41;;;10.39;50.89
48527;BME280;34317;51.660;5.824;2023-04-15T06:25:32;101018.91;;;10.44;50.79
48527;BME280;34317;51.660;5.824;2023-04-15T06:27:59;101023.06;;;10.50;50.82
48527;BME280;34317;51.660;5.824;2023-04-15T06:30:26;101026.41;;;10.55;50.70
48527;BME280;34317;51.660;5.824;2023-04-15T06:32:58;101031.44;;;10.61;51.07
48527;BME280;34317;51.660;5.824;2023-04-15T06:35:31;101038.19;;;10.68;50.97
48527;BME280;34317;51.660;5.824;2023-04-15T06:38:01;101048.53;;;10.75;50.60
48527;BME280;34317;51.660;5.824;2023-04-15T06:40:28;101039.41;;;10.82;50.59
48527;BME280;34317;51.660;5.824;2023-04-15T06:42:55;101048.88;;;10.87;50.56
48527;BME280;34317;51.660;5.824;2023-04-15T06:45:22;101047.75;;;10.93;50.71
48527;BME280;34317;51.660;5.824;2023-04-15T06:47:49;101049.19;;;11.00;50.82
48527;BME280;34317;51.660;5.824;2023-04-15T06:50:17;101048.81;;;11.09;51.02
48527;BME280;34317;51.660;5.824;2023-04-15T06:52:44;101051.97;;;11.18;51.21
48527;BME280;34317;51.660;5.824;2023-04-15T06:55:11;101061.09;;;11.31;51.39
48527;BME280;34317;51.660;5.824;2023-04-15T06:57:39;101061.47;;;11.42;51.02
48527;BME280;34317;51.660;5.824;2023-04-15T07:00:06;101062.75;;;11.53;51.08
48527;BME280;34317;51.660;5.824;2023-04-15T07:02:34;101072.84;;;11.65;51.00
48527;BME280;34317;51.660;5.824;2023-04-15T07:05:15;101069.63;;;11.77;51.06
48527;BME280;34317;51.660;5.824;2023-04-15T07:07:49;101079.63;;;11.91;51.27
48527;BME280;34317;51.660;5.824;2023-04-15T07:10:16;101081.78;;;12.02;51.21
48527;BME280;34317;51.660;5.824;2023-04-15T07:12:43;101086.34;;;12.17;51.11
48527;BME280;34317;51.660;5.824;2023-04-15T07:15:10;101089.34;;;12.29;51.02
48527;BME280;34317;51.660;5.824;2023-04-15T07:17:38;101095.94;;;12.39;50.89
48527;BME280;34317;51.660;5.824;2023-04-15T07:20:05;101106.13;;;12.48;50.94
48527;BME280;34317;51.660;5.824;2023-04-15T07:22:33;101114.56;;;12.56;50.74
48527;BME280;34317;51.660;5.824;2023-04-15T07:25:00;101105.34;;;12.63;50.89
48527;BME280;34317;51.660;5.824;2023-04-15T07:27:27;101112.09;;;12.71;50.64
48527;BME280;34317;51.660;5.824;2023-04-15T07:29:54;101117.25;;;12.74;50.78
48527;BME280;34317;51.660;5.824;2023-04-15T07:32:22;101119.75;;;12.77;50.61
48527;BME280;34317;51.660;5.824;2023-04-15T07:34:49;101122.25;;;12.80;50.48
48527;BME280;34317;51.660;5.824;2023-04-15T07:37:16;101119.53;;;12.81;50.44
48527;BME280;34317;51.660;5.824;2023-04-15T07:39:43;101134.63;;;12.81;50.34
48527;BME280;34317;51.660;5.824;2023-04-15T07:42:10;101131.97;;;12.81;50.23
48527;BME280;34317;51.660;5.824;2023-04-15T07:44:37;101140.72;;;12.83;50.46
48527;BME280;34317;51.660;5.824;2023-04-15T07:47:04;101141.50;;;12.85;50.33
48527;BME280;34317;51.660;5.824;2023-04-15T07:49:32;101144.94;;;12.87;50.25
48527;BME280;34317;51.660;5.824;2023-04-15T07:51:59;101144.94;;;12.87;50.40
48527;BME280;34317;51.660;5.824;2023-04-15T07:54:26;101150.09;;;12.90;50.34
48527;BME280;34317;51.660;5.824;2023-04-15T07:56:53;101144.63;;;12.93;50.29
48527;BME280;34317;51.660;5.824;2023-04-15T07:59:21;101157.78;;;12.96;50.51
48527;BME280;34317;51.660;5.824;2023-04-15T08:01:48;101150.53;;;13.00;50.78
48527;BME280;34317;51.660;5.824;2023-04-15T08:04:16;101161.88;;;13.03;50.26
48527;BME280;34317;51.660;5.824;2023-04-15T08:06:43;101154.66;;;13.05;50.38
48527;BME280;34317;51.660;5.824;2023-04-15T08:09:10;101163.44;;;13.08;50.23
48527;BME280;34317;51.660;5.824;2023-04-15T08:11:37;101171.88;;;13.16;50.25
48527;BME280;34317;51.660;5.824;2023-04-15T08:14:05;101167.97;;;13.23;50.43
48527;BME280;34317;51.660;5.824;2023-04-15T08:16:33;101167.53;;;13.32;50.36
48527;BME280;34317;51.660;5.824;2023-04-15T08:19:00;101165.31;;;13.40;50.21
48527;BME280;34317;51.660;5.824;2023-04-15T08:21:27;101177.38;;;13.48;50.21
48527;BME280;34317;51.660;5.824;2023-04-15T08:23:56;101176.91;;;13.57;50.05
48527;BME280;34317;51.660;5.824;2023-04-15T08:26:24;101179.16;;;13.65;50.07
48527;BME280;34317;51.660;5.824;2023-04-15T08:28:51;101186.59;;;13.75;50.08
48527;BME280;34317;51.660;5.824;2023-04-15T08:31:18;101188.00;;;13.82;49.86
48527;BME280;34317;51.660;5.824;2023-04-15T08:33:46;101177.69;;;13.92;49.71
48527;BME280;34317;51.660;5.824;2023-04-15T08:36:13;101174.44;;;14.03;49.62
48527;BME280;34317;51.660;5.824;2023-04-15T08:38:40;101182.69;;;14.14;49.47
48527;BME280;34317;51.660;5.824;2023-04-15T08:41:20;101187.53;;;14.24;49.41
48527;BME280;34317;51.660;5.824;2023-04-15T08:43:58;101195.97;;;14.32;49.43
48527;BME280;34317;51.660;5.824;2023-04-15T08:46:28;101194.66;;;14.39;49.32
48527;BME280;34317;51.660;5.824;2023-04-15T08:48:57;101198.91;;;14.43;48.91
48527;BME280;34317;51.660;5.824;2023-04-15T08:51:24;101207.50;;;14.48;48.79
48527;BME280;34317;51.660;5.824;2023-04-15T08:53:52;101209.06;;;14.52;48.63
48527;BME280;34317;51.660;5.824;2023-04-15T08:56:23;101211.72;;;14.52;48.37
48527;BME280;34317;51.660;5.824;2023-04-15T08:58:51;101214.19;;;14.55;48.30
48527;BME280;34317;51.660;5.824;2023-04-15T09:01:18;101205.28;;;14.56;48.10
48527;BME280;34317;51.660;5.824;2023-04-15T09:03:47;101212.34;;;14.57;48.14
48527;BME280;34317;51.660;5.824;2023-04-15T09:06:16;101219.31;;;14.60;48.07
48527;BME280;34317;51.660;5.824;2023-04-15T09:08:43;101222.69;;;14.64;47.88
48527;BME280;34317;51.660;5.824;2023-04-15T09:11:10;101220.59;;;14.69;47.91
48527;BME280;34317;51.660;5.824;2023-04-15T09:13:38;101230.94;;;14.75;47.87
48527;BME280;34317;51.660;5.824;2023-04-15T09:16:06;101229.72;;;14.81;47.59
48527;BME280;34317;51.660;5.824;2023-04-15T09:18:35;101227.84;;;14.83;47.27
48527;BME280;34317;51.660;5.824;2023-04-15T09:21:11;101237.47;;;14.85;47.26
48527;BME280;34317;51.660;5.824;2023-04-15T09:23:58;101248.72;;;14.90;47.56
48527;BME280;34317;51.660;5.824;2023-04-15T09:26:34;101247.44;;;14.97;47.30
48527;BME280;34317;51.660;5.824;2023-04-15T09:31:32;101250.34;;;15.09;46.98
48527;BME280;34317;51.660;5.824;2023-04-15T09:33:59;101255.50;;;15.12;46.60
48527;BME280;34317;51.660;5.824;2023-04-15T09:36:27;101259.63;;;15.17;46.96
48527;BME280;34317;51.660;5.824;2023-04-15T09:38:58;101257.38;;;15.26;46.71
48527;BME280;34317;51.660;5.824;2023-04-15T09:41:26;101257.03;;;15.32;46.42
48527;BME280;34317;51.660;5.824;2023-04-15T09:43:54;101260.16;;;15.38;46.36
48527;BME280;34317;51.660;5.824;2023-04-15T09:46:40;101262.50;;;15.45;46.49
48527;BME280;34317;51.660;5.824;2023-04-15T09:49:09;101256.63;;;15.54;45.95
48527;BME280;34317;51.660;5.824;2023-04-15T09:51:37;101258.91;;;15.60;46.25
48527;BME280;34317;51.660;5.824;2023-04-15T09:54:04;101271.72;;;15.69;45.80
48527;BME280;34317;51.660;5.824;2023-04-15T09:56:38;101273.97;;;15.77;46.04
48527;BME280;34317;51.660;5.824;2023-04-15T09:59:08;101269.00;;;15.85;45.82
48527;BME280;34317;51.660;5.824;2023-04-15T10:01:35;101277.31;;;15.95;46.07
48527;BME280;34317;51.660;5.824;2023-04-15T10:04:03;101266.09;;;16.04;45.34
48527;BME280;34317;51.660;5.824;2023-04-15T10:06:32;101271.03;;;16.10;45.53
48527;BME280;34317;51.660;5.824;2023-04-15T10:09:00;101274.28;;;16.15;45.22
48527;BME280;34317;51.660;5.824;2023-04-15T10:11:28;101267.03;;;16.18;45.01
48527;BME280;34317;51.660;5.824;2023-04-15T10:13:57;101272.38;;;16.18;44.61
48527;BME280;34317;51.660;5.824;2023-04-15T10:16:27;101284.97;;;16.15;44.40
48527;BME280;34317;51.660;5.824;2023-04-15T10:19:00;101283.28;;;16.14;44.41
48527;BME280;34317;51.660;5.824;2023-04-15T10:21:29;101291.00;;;16.19;44.92
48527;BME280;34317;51.660;5.824;2023-04-15T10:23:57;101284.25;;;16.28;44.89
48527;BME280;34317;51.660;5.824;2023-04-15T10:26:25;101294.38;;;16.37;44.86
48527;BME280;34317;51.660;5.824;2023-04-15T10:28:52;101288.63;;;16.43;44.76
48527;BME280;34317;51.660;5.824;2023-04-15T10:31:20;101292.06;;;16.45;44.44
48527;BME280;34317;51.660;5.824;2023-04-15T10:33:48;101288.44;;;16.46;44.28
48527;BME280;34317;51.660;5.824;2023-04-15T10:36:17;101293.50;;;16.51;44.28
48527;BME280;34317;51.660;5.824;2023-04-15T10:38:45;101303.88;;;16.55;44.72
48527;BME280;34317;51.660;5.824;2023-04-15T10:41:26;101298.19;;;16.62;44.42
48527;BME280;34317;51.660;5.824;2023-04-15T10:44:02;101302.47;;;16.64;44.03
48527;BME280;34317;51.660;5.824;2023-04-15T10:49:23;101301.59;;;16.64;43.98
48527;BME280;34317;51.660;5.824;2023-04-15T10:51:56;101313.25;;;16.63;43.31
48527;BME280;34317;51.660;5.824;2023-04-15T10:56:51;101309.22;;;16.55;43.01
48527;BME280;34317;51.660;5.824;2023-04-15T11:02:53;101311.63;;;16.60;43.46
48527;BME280;34317;51.660;5.824;2023-04-15T11:05:48;101316.13;;;16.60;43.47
48527;BME280;34317;51.660;5.824;2023-04-15T11:08:16;101317.66;;;16.64;43.58
48527;BME280;34317;51.660;5.824;2023-04-15T11:15:47;101323.75;;;16.66;43.32
48527;BME280;34317;51.660;5.824;2023-04-15T11:20:47;101318.59;;;16.77;43.80
48527;BME280;34317;51.660;5.824;2023-04-15T11:23:38;101331.59;;;16.83;43.80
48527;BME280;34317;51.660;5.824;2023-04-15T11:26:08;101321.47;;;16.88;43.21
48527;BME280;34317;51.660;5.824;2023-04-15T11:28:36;101333.88;;;16.89;43.24
48527;BME280;34317;51.660;5.824;2023-04-15T11:31:10;101337.13;;;16.95;43.46
48527;BME280;34317;51.660;5.824;2023-04-15T11:33:44;101345.53;;;17.03;43.49
48527;BME280;34317;51.660;5.824;2023-04-15T11:36:12;101334.34;;;17.10;43.20
48527;BME280;34317;51.660;5.824;2023-04-15T11:38:43;101341.88;;;17.18;43.11
48527;BME280;34317;51.660;5.824;2023-04-15T11:41:10;101340.53;;;17.25;42.79
48527;BME280;34317;51.660;5.824;2023-04-15T11:43:38;101340.13;;;17.31;42.70
48527;BME280;34317;51.660;5.824;2023-04-15T11:46:05;101335.84;;;17.42;43.03
48527;BME280;34317;51.660;5.824;2023-04-15T11:48:34;101334.19;;;17.54;42.82
48527;BME280;34317;51.660;5.824;2023-04-15T11:51:04;101337.88;;;17.65;43.02
48527;BME280;34317;51.660;5.824;2023-04-15T11:53:42;101328.47;;;17.73;43.11
48527;BME280;34317;51.660;5.824;2023-04-15T11:56:16;101342.88;;;17.84;43.17
48527;BME280;34317;51.660;5.824;2023-04-15T11:58:44;101342.16;;;17.95;42.72
48527;BME280;34317;51.660;5.824;2023-04-15T12:01:12;101339.25;;;17.98;42.02
48527;BME280;34317;51.660;5.824;2023-04-15T12:03:41;101342.91;;;17.97;42.05
48527;BME280;34317;51.660;5.824;2023-04-15T12:09:02;101343.75;;;17.85;41.24
48527;BME280;34317;51.660;5.824;2023-04-15T12:14:25;101355.75;;;17.92;41.94
48527;BME280;34317;51.660;5.824;2023-04-15T12:16:56;101358.75;;;18.00;41.73
48527;BME280;34317;51.660;5.824;2023-04-15T12:19:26;101361.81;;;18.08;42.16
48527;BME280;34317;51.660;5.824;2023-04-15T12:22:03;101359.25;;;18.20;41.87
48527;BME280;34317;51.660;5.824;2023-04-15T12:24:32;101360.84;;;18.22;41.25
48527;BME280;34317;51.660;5.824;2023-04-15T12:27:04;101359.44;;;18.17;40.42
48527;BME280;34317;51.660;5.824;2023-04-15T12:29:33;101371.25;;;18.14;40.58
48527;BME280;34317;51.660;5.824;2023-04-15T12:32:16;101374.78;;;18.15;40.76
48527;BME280;34317;51.660;5.824;2023-04-15T12:34:51;101370.28;;;18.15;41.03
48527;BME280;34317;51.660;5.824;2023-04-15T12:37:19;101375.53;;;18.17;40.77
48527;BME280;34317;51.660;5.824;2023-04-15T12:39:48;101377.03;;;18.21;40.79
48527;BME280;34317;51.660;5.824;2023-04-15T12:42:16;101381.34;;;18.23;40.62
48527;BME280;34317;51.660;5.824;2023-04-15T12:44:43;101377.78;;;18.23;40.67
48527;BME280;34317;51.660;5.824;2023-04-15T12:47:11;101386.72;;;18.23;41.12
48527;BME280;34317;51.660;5.824;2023-04-15T12:49:39;101383.91;;;18.25;41.10
48527;BME280;34317;51.660;5.824;2023-04-15T12:52:06;101381.97;;;18.27;41.13
48527;BME280;34317;51.660;5.824;2023-04-15T12:54:34;101409.13;;;18.35;41.03
48527;BME280;34317;51.660;5.824;2023-04-15T12:57:02;101391.84;;;18.39;40.15
48527;BME280;34317;51.660;5.824;2023-04-15T12:59:34;101402.78;;;18.36;40.11
48527;BME280;34317;51.660;5.824;2023-04-15T13:02:02;101404.94;;;18.31;39.92
48527;BME280;34317;51.660;5.824;2023-04-15T13:04:29;101406.88;;;18.29;40.04
48527;BME280;34317;51.660;5.824;2023-04-15T13:06:57;101415.69;;;18.31;39.88
48527;BME280;34317;51.660;5.824;2023-04-15T13:09:24;101409.22;;;18.34;39.30
48527;BME280;34317;51.660;5.824;2023-04-15T13:11:51;101413.50;;;18.36;39.75
48527;BME280;34317;51.660;5.824;2023-04-15T13:14:20;101419.44;;;18.41;39.75
48527;BME280;34317;51.660;5.824;2023-04-15T13:16:47;101407.50;;;18.45;40.07
48527;BME280;34317;51.660;5.824;2023-04-15T13:19:14;101414.19;;;18.53;39.71
48527;BME280;34317;51.660;5.824;2023-04-15T13:21:41;101417.41;;;18.58;39.36
48527;BME280;34317;51.660;5.824;2023-04-15T13:24:08;101425.47;;;18.58;39.46
48527;BME280;34317;51.660;5.824;2023-04-15T13:26:36;101426.41;;;18.57;39.50